Time;durP1;ratioP1;P1;durP2;ratioP2;P2;SDS_P1;SDS_P2;PMS_P1;PMS_P2;Temp;Humidity;BMP_temperature;BMP_pressure;BME280_temperature;BME280_humidity;BME280_pressure;Samples;Min_cycle;Max_cycle;Signal;HPM_P1;HPM_P2
2022/03/30 00:01:55;;;;;;;23.40;8.98;;;10.40;99.90;;;;;;5017243;28;20053;-85
2022/03/30 00:04:21;;;;;;;18.08;9.88;;;10.30;99.90;;;;;;5002849;28;20054;-84
2022/03/30 00:06:47;;;;;;;25.63;9.55;;;10.30;99.90;;;;;;4979134;28;20110;-85
2022/03/30 00:09:12;;;;;;;18.42;9.75;;;10.20;99.90;;;;;;4978412;28;20026;-84
2022/03/30 00:11:38;;;;;;;23.00;9.75;;;10.20;99.90;;;;;;4977632;28;20553;-85
2022/03/30 00:14:04;;;;;;;29.33;10.38;;;10.10;99.90;;;;;;4995394;28;20471;-82
2022/03/30 00:16:29;;;;;;;23.70;9.70;;;10.10;99.90;;;;;;5002866;28;20038;-85
2022/03/30 00:18:55;;;;;;;30.40;8.90;;;10.10;99.90;;;;;;5012394;28;20030;-84
2022/03/30 00:21:21;;;;;;;22.25;10.77;;;10.10;99.90;;;;;;5013939;28;20382;-85
2022/03/30 00:23:47;;;;;;;20.38;9.93;;;10.10;99.90;;;;;;5014196;28;20029;-84
2022/03/30 00:26:12;;;;;;;19.13;9.52;;;10.10;99.90;;;;;;4994440;28;20449;-85
2022/03/30 00:28:38;;;;;;;18.00;9.52;;;10.10;99.90;;;;;;4995057;28;20027;-84
2022/03/30 00:31:04;;;;;;;17.92;9.02;;;10.10;99.90;;;;;;4976936;28;20569;-84
2022/03/30 00:33:30;;;;;;;29.55;10.30;;;10.00;99.90;;;;;;4993453;28;20102;-84
2022/03/30 00:35:55;;;;;;;26.10;10.93;;;10.00;99.90;;;;;;4977415;28;20035;-84
2022/03/30 00:38:21;;;;;;;26.90;10.73;;;10.00;99.90;;;;;;4994827;28;20018;-84
2022/03/30 00:40:48;;;;;;;23.35;9.38;;;10.00;99.90;;;;;;4994265;28;20026;-84
2022/03/30 00:43:14;;;;;;;21.38;9.50;;;10.00;99.90;;;;;;4994984;28;20033;-82
2022/03/30 00:45:40;;;;;;;25.08;10.80;;;10.00;99.90;;;;;;4994657;28;20455;-84
2022/03/30 00:48:07;;;;;;;25.08;10.48;;;10.00;99.90;;;;;;4995014;28;20506;-84
2022/03/30 00:50:33;;;;;;;20.60;10.95;;;10.00;99.90;;;;;;4995980;28;20110;-85
2022/03/30 00:52:58;;;;;;;20.10;9.45;;;10.00;99.90;;;;;;4977984;28;20033;-85
2022/03/30 00:55:25;;;;;;;25.80;11.82;;;10.00;99.90;;;;;;4995800;28;20026;-86
2022/03/30 00:57:53;;;;;;;25.90;10.27;;;9.90;99.90;;;;;;4995037;28;20026;-85
2022/03/30 01:00:20;;;;;;;21.02;10.25;;;9.90;99.90;;;;;;4995186;28;20026;-85
2022/03/30 01:02:48;;;;;;;23.40;10.57;;;9.90;99.90;;;;;;4977559;28;20399;-85
2022/03/30 01:05:15;;;;;;;28.48;11.90;;;9.80;99.90;;;;;;4976937;28;20044;-85
2022/03/30 01:07:41;;;;;;;20.67;10.05;;;9.70;99.90;;;;;;4994940;28;20045;-85
2022/03/30 01:10:09;;;;;;;22.65;10.20;;;9.70;99.90;;;;;;4976880;28;20023;-85
2022/03/30 01:12:39;;;;;;;23.27;11.30;;;9.70;99.90;;;;;;4977441;28;20022;-85
2022/03/30 01:15:06;;;;;;;20.35;10.00;;;9.70;99.90;;;;;;4994358;28;20096;-85
2022/03/30 01:17:31;;;;;;;22.80;9.27;;;9.70;99.90;;;;;;5000760;28;20097;-85
2022/03/30 01:19:57;;;;;;;17.63;9.52;;;9.70;99.90;;;;;;4995806;28;20056;-86
2022/03/30 01:22:23;;;;;;;24.80;10.75;;;9.60;99.90;;;;;;4996255;28;20025;-85
2022/03/30 01:24:49;;;;;;;23.75;10.35;;;9.60;99.90;;;;;;5013693;28;20493;-85
2022/03/30 01:27:15;;;;;;;23.45;10.70;;;9.60;99.90;;;;;;5002117;28;20041;-85
2022/03/30 01:32:26;;;;;;;25.50;10.80;;;9.50;99.90;;;;;;4994230;28;20077;-84
2022/03/30 01:35:03;;;;;;;28.02;11.48;;;9.50;99.90;;;;;;4993732;28;20026;-83
2022/03/30 01:37:31;;;;;;;19.98;10.07;;;9.60;99.90;;;;;;4994305;28;20186;-85
2022/03/30 01:39:59;;;;;;;28.98;10.73;;;9.60;99.90;;;;;;4976522;28;20030;-84
2022/03/30 01:42:26;;;;;;;25.10;10.50;;;9.60;99.90;;;;;;4976868;28;20446;-85
2022/03/30 01:44:53;;;;;;;23.42;10.35;;;9.50;99.90;;;;;;4976744;28;20114;-84
2022/03/30 01:47:19;;;;;;;22.90;11.18;;;9.50;99.90;;;;;;4994694;28;20475;-85
2022/03/30 01:49:46;;;;;;;24.63;11.07;;;9.50;99.90;;;;;;5012566;23;20037;-85
2022/03/30 01:52:15;;;;;;;24.10;11.07;;;9.50;99.90;;;;;;5002243;28;20156;-85
2022/03/30 01:54:41;;;;;;;26.80;10.65;;;9.50;99.90;;;;;;5006362;28;20512;-87
2022/03/30 01:57:08;;;;;;;22.75;10.20;;;9.50;99.90;;;;;;5011955;28;20026;-85
2022/03/30 01:59:34;;;;;;;21.13;11.77;;;9.50;99.90;;;;;;4995127;28;20026;-86
2022/03/30 02:02:02;;;;;;;24.70;10.50;;;9.50;99.90;;;;;;5012484;28;20057;-87
2022/03/30 02:04:28;;;;;;;24.67;11.32;;;9.40;99.90;;;;;;4997364;28;20022;-87
2022/03/30 02:06:54;;;;;;;26.75;11.52;;;9.40;99.90;;;;;;5000723;28;20033;-86
2022/03/30 02:09:20;;;;;;;21.25;11.13;;;9.50;99.90;;;;;;5007728;28;20399;-87
2022/03/30 02:11:46;;;;;;;19.30;10.73;;;9.50;99.90;;;;;;4975218;28;20073;-86
2022/03/30 02:14:11;;;;;;;23.05;10.38;;;9.50;99.90;;;;;;4975064;28;20026;-87
2022/03/30 02:16:37;;;;;;;23.30;10.60;;;9.50;99.90;;;;;;4992438;28;20086;-87
2022/03/30 02:19:03;;;;;;;25.48;10.48;;;9.60;99.90;;;;;;4974806;28;20022;-87
2022/03/30 02:21:28;;;;;;;23.30;10.60;;;9.50;99.90;;;;;;4992408;28;20026;-87
2022/03/30 02:23:54;;;;;;;26.33;11.05;;;9.50;99.90;;;;;;4999869;28;20022;-86
2022/03/30 02:26:20;;;;;;;25.27;11.05;;;9.50;99.90;;;;;;4994460;28;20030;-87
2022/03/30 02:28:54;;;;;;;21.45;10.60;;;9.50;99.90;;;;;;5011968;28;20494;-87
2022/03/30 02:31:20;;;;;;;27.17;11.07;;;9.40;99.90;;;;;;5011847;28;20034;-85
2022/03/30 02:33:47;;;;;;;25.45;12.32;;;9.40;99.90;;;;;;5011763;28;20034;-87
2022/03/30 02:36:13;;;;;;;22.10;10.60;;;9.40;99.90;;;;;;4994217;28;20499;-87
2022/03/30 02:38:39;;;;;;;19.45;10.75;;;9.40;99.90;;;;;;4974236;28;20459;-87
2022/03/30 02:41:06;;;;;;;26.45;10.45;;;9.40;99.90;;;;;;4991603;28;20022;-87
2022/03/30 02:43:32;;;;;;;29.67;12.20;;;9.40;99.90;;;;;;4976235;28;20041;-86
2022/03/30 02:45:58;;;;;;;24.73;12.00;;;9.40;99.90;;;;;;4979385;28;20033;-86
2022/03/30 02:48:28;;;;;;;26.15;11.80;;;9.20;99.90;;;;;;4997064;28;20457;-87
2022/03/30 02:50:56;;;;;;;23.58;11.65;;;9.30;99.90;;;;;;4981726;28;20105;-85
2022/03/30 02:53:22;;;;;;;20.77;11.13;;;9.30;99.90;;;;;;4998333;28;20033;-87
2022/03/30 02:55:48;;;;;;;21.35;11.23;;;9.30;99.90;;;;;;4999718;28;20049;-87
2022/03/30 02:58:14;;;;;;;25.08;12.90;;;9.30;99.90;;;;;;5013170;28;20030;-88
2022/03/30 03:00:41;;;;;;;20.77;11.27;;;9.30;99.90;;;;;;5003068;28;20080;-87
2022/03/30 03:03:10;;;;;;;23.33;10.75;;;9.30;99.90;;;;;;4999221;28;20031;-86
2022/03/30 03:05:38;;;;;;;29.20;11.07;;;9.30;99.90;;;;;;4981560;28;20022;-85
2022/03/30 03:08:09;;;;;;;24.05;12.23;;;9.20;99.90;;;;;;4981238;28;20027;-86
2022/03/30 03:10:36;;;;;;;23.83;11.35;;;9.20;99.90;;;;;;4998106;28;20026;-86
2022/03/30 03:13:03;;;;;;;25.15;12.20;;;9.20;99.90;;;;;;4970134;28;20031;-86
2022/03/30 03:15:33;;;;;;;31.95;11.68;;;9.30;99.90;;;;;;4979462;28;20026;-86
2022/03/30 03:18:01;;;;;;;22.83;11.77;;;9.30;99.90;;;;;;4979510;28;20474;-86
2022/03/30 03:20:27;;;;;;;20.98;10.35;;;9.30;99.90;;;;;;4996443;28;20038;-87
2022/03/30 03:22:54;;;;;;;21.77;10.52;;;9.30;99.90;;;;;;4995451;28;20019;-86
2022/03/30 03:25:20;;;;;;;22.70;9.98;;;9.30;99.90;;;;;;4995408;28;20030;-87
2022/03/30 03:27:45;;;;;;;29.65;10.30;;;9.40;99.90;;;;;;4995215;28;20081;-87
2022/03/30 03:30:13;;;;;;;29.83;9.90;;;9.40;99.90;;;;;;4994951;28;20109;-86
2022/03/30 03:32:38;;;;;;;23.65;10.38;;;9.50;99.90;;;;;;4977170;28;20024;-88
2022/03/30 03:35:04;;;;;;;27.63;10.10;;;9.60;99.90;;;;;;4977301;28;20371;-88
2022/03/30 03:37:30;;;;;;;31.48;9.85;;;9.70;99.90;;;;;;4977576;28;20088;-87
2022/03/30 03:39:55;;;;;;;29.30;9.23;;;9.70;99.90;;;;;;4977803;28;20026;-87
2022/03/30 03:42:21;;;;;;;21.13;9.60;;;9.70;99.90;;;;;;4994913;28;20548;-87
2022/03/30 03:44:47;;;;;;;25.85;10.25;;;9.80;99.90;;;;;;4994861;28;20026;-87
2022/03/30 03:47:12;;;;;;;35.67;10.65;;;9.80;99.90;;;;;;4977239;28;20051;-85
2022/03/30 03:49:39;;;;;;;27.08;8.82;;;9.80;99.90;;;;;;4994464;28;20490;-85
2022/03/30 03:52:05;;;;;;;23.95;9.05;;;9.70;99.90;;;;;;4977526;28;20061;-85
2022/03/30 03:54:31;;;;;;;24.35;9.48;;;9.70;99.90;;;;;;4994710;28;20031;-85
2022/03/30 03:56:57;;;;;;;20.50;8.77;;;9.70;99.90;;;;;;4977223;28;20026;-85
2022/03/30 03:59:23;;;;;;;27.63;9.82;;;9.70;99.90;;;;;;5004629;28;20484;-86
2022/03/30 04:01:49;;;;;;;24.58;9.15;;;9.70;99.90;;;;;;4976421;28;20026;-84
2022/03/30 04:04:16;;;;;;;28.33;9.25;;;9.70;99.90;;;;;;4976882;28;20104;-86
2022/03/30 04:06:41;;;;;;;25.35;9.85;;;9.70;99.90;;;;;;4994777;28;20037;-85
2022/03/30 04:09:07;;;;;;;25.17;9.52;;;9.70;99.90;;;;;;4994041;28;20030;-85
2022/03/30 04:11:33;;;;;;;21.92;8.50;;;9.70;99.90;;;;;;4994512;28;20028;-85
2022/03/30 04:13:58;;;;;;;23.38;8.93;;;9.60;99.90;;;;;;4994031;28;20038;-84
2022/03/30 04:16:24;;;;;;;33.03;9.10;;;9.70;99.90;;;;;;4993967;28;20475;-86
2022/03/30 04:18:49;;;;;;;24.98;8.95;;;9.70;99.90;;;;;;4994071;28;20042;-86
2022/03/30 04:21:15;;;;;;;26.17;8.80;;;9.70;99.90;;;;;;4976588;28;20038;-86
2022/03/30 04:23:41;;;;;;;28.88;8.18;;;9.60;99.90;;;;;;4994023;28;20076;-86
2022/03/30 04:26:10;;;;;;;25.73;9.80;;;9.70;99.90;;;;;;4994155;28;20042;-86
2022/03/30 04:28:40;;;;;;;22.70;8.70;;;9.60;99.90;;;;;;4976386;28;20032;-85
2022/03/30 04:31:07;;;;;;;26.83;9.20;;;9.70;99.90;;;;;;4993586;28;20050;-85
2022/03/30 04:33:33;;;;;;;23.83;9.60;;;9.60;99.90;;;;;;4993663;28;20037;-85
2022/03/30 04:35:59;;;;;;;26.23;10.70;;;9.70;99.90;;;;;;4993703;28;20030;-85
2022/03/30 04:38:24;;;;;;;31.02;9.73;;;9.60;99.90;;;;;;4993577;28;20033;-87
2022/03/30 04:40:50;;;;;;;23.85;10.07;;;9.50;99.90;;;;;;4993317;28;20046;-87
2022/03/30 04:43:15;;;;;;;27.45;10.40;;;9.50;99.90;;;;;;4976534;28;20088;-88
2022/03/30 04:45:41;;;;;;;26.17;10.52;;;9.50;99.90;;;;;;4993816;28;20023;-88
2022/03/30 04:48:07;;;;;;;20.35;9.85;;;9.50;99.90;;;;;;4993516;28;20034;-88
2022/03/30 04:50:32;;;;;;;27.58;12.10;;;9.40;99.90;;;;;;4993530;28;20038;-88
2022/03/30 04:52:58;;;;;;;22.58;9.50;;;9.40;99.90;;;;;;4976236;28;20030;-88
2022/03/30 04:55:24;;;;;;;29.75;11.55;;;9.40;99.90;;;;;;4976293;28;20069;-88
2022/03/30 04:57:49;;;;;;;31.05;11.38;;;9.40;99.90;;;;;;4999811;28;20425;-87
2022/03/30 05:00:15;;;;;;;23.25;10.98;;;9.40;99.90;;;;;;5013794;28;20055;-89
2022/03/30 05:02:41;;;;;;;26.02;10.90;;;9.40;99.90;;;;;;5002890;28;20408;-89
2022/03/30 05:05:08;;;;;;;29.73;10.90;;;9.40;99.90;;;;;;5013518;28;20100;-88
2022/03/30 05:07:34;;;;;;;28.40;10.93;;;9.40;99.90;;;;;;5013466;28;20034;-84
2022/03/30 05:10:05;;;;;;;28.40;12.13;;;9.40;99.90;;;;;;4999090;28;20026;-84
2022/03/30 05:12:31;;;;;;;;;;;9.40;99.90;;;;;;5016591;28;20041;-85
2022/03/30 05:14:57;;;;;;;27.88;11.50;;;9.40;99.90;;;;;;5016406;28;19913;-85
2022/03/30 05:17:23;;;;;;;29.35;12.40;;;9.30;99.90;;;;;;4993669;28;20042;-85
2022/03/30 05:20:13;;;;;;;24.58;12.68;;;9.30;99.90;;;;;;4980803;28;20018;-85
2022/03/30 05:22:50;;;;;;;31.90;12.48;;;9.20;99.90;;;;;;4998569;28;20524;-85
2022/03/30 05:25:24;;;;;;;27.73;12.60;;;9.20;99.90;;;;;;4983351;28;20089;-84
2022/03/30 05:27:50;;;;;;;37.33;14.55;;;9.20;99.90;;;;;;4985588;28;20057;-85
2022/03/30 05:30:16;;;;;;;32.58;14.15;;;9.20;99.90;;;;;;5000538;28;20487;-84
2022/03/30 05:32:45;;;;;;;36.13;13.63;;;9.20;99.90;;;;;;4999916;28;20076;-82
2022/03/30 05:35:12;;;;;;;26.73;13.38;;;9.20;99.90;;;;;;5001471;28;20045;-84
2022/03/30 05:37:56;;;;;;;28.13;12.27;;;9.20;99.90;;;;;;4985643;28;20050;-85
2022/03/30 05:40:27;;;;;;;32.95;13.43;;;9.20;99.90;;;;;;4990011;28;20030;-86
2022/03/30 05:42:53;;;;;;;32.50;13.30;;;9.20;99.90;;;;;;4987784;28;20038;-83
2022/03/30 05:45:19;;;;;;;25.95;12.05;;;9.20;99.90;;;;;;4996300;28;20026;-84
2022/03/30 05:51:00;;;;;;;21.33;11.27;;;9.30;99.90;;;;;;5086736;22;20053;-83
2022/03/30 05:53:26;;;;;;;24.88;12.15;;;9.30;99.90;;;;;;4998403;28;20096;-85
2022/03/30 05:55:55;;;;;;;27.38;12.32;;;9.40;99.90;;;;;;4997870;28;20120;-84
2022/03/30 05:58:21;;;;;;;31.73;12.40;;;9.40;99.90;;;;;;5015248;28;20497;-82
2022/03/30 06:00:48;;;;;;;24.67;12.27;;;9.40;99.90;;;;;;4996261;28;20208;-85
2022/03/30 06:03:14;;;;;;;30.33;12.40;;;9.30;99.90;;;;;;4996694;28;20029;-83
2022/03/30 06:05:40;;;;;;;29.10;12.10;;;9.30;99.90;;;;;;5014787;28;20505;-83
2022/03/30 06:08:07;;;;;;;30.73;12.27;;;9.30;99.90;;;;;;5015991;28;20026;-84
2022/03/30 06:10:33;;;;;;;29.25;12.38;;;9.40;99.90;;;;;;4997653;28;20486;-83
2022/03/30 06:12:59;;;;;;;30.27;12.18;;;9.40;99.90;;;;;;4998568;28;20026;-84
2022/03/30 06:15:26;;;;;;;32.33;13.48;;;9.40;99.90;;;;;;4999039;28;20589;-84
2022/03/30 06:17:54;;;;;;;29.58;13.07;;;9.40;99.90;;;;;;4997726;28;20382;-87
2022/03/30 06:20:21;;;;;;;21.42;12.38;;;9.40;99.90;;;;;;5014746;28;20022;-85
2022/03/30 06:22:47;;;;;;;31.02;12.52;;;9.30;99.90;;;;;;4997346;28;20080;-84
2022/03/30 06:25:12;;;;;;;26.30;12.45;;;9.30;99.90;;;;;;5014994;28;20030;-86
2022/03/30 06:27:41;;;;;;;30.95;14.43;;;9.30;99.90;;;;;;5015066;28;20048;-85
2022/03/30 06:30:09;;;;;;;33.85;14.18;;;9.40;99.90;;;;;;5013778;28;20136;-85
2022/03/30 06:32:35;;;;;;;32.22;13.95;;;9.30;99.90;;;;;;4998359;28;20026;-85
2022/03/30 06:35:04;;;;;;;31.75;12.75;;;9.30;99.90;;;;;;5019955;28;20034;-85
2022/03/30 06:37:31;;;;;;;31.65;14.50;;;9.30;99.90;;;;;;5018278;28;20548;-84
2022/03/30 06:39:57;;;;;;;36.75;14.88;;;9.30;99.90;;;;;;5000415;28;20029;-84
2022/03/30 06:42:22;;;;;;;28.52;13.43;;;9.20;99.90;;;;;;5017857;28;20026;-84
2022/03/30 06:44:48;;;;;;;29.05;14.07;;;9.30;99.90;;;;;;5017493;28;20025;-85
2022/03/30 06:47:14;;;;;;;29.17;14.23;;;9.30;99.90;;;;;;4999544;28;20029;-85
2022/03/30 06:49:40;;;;;;;29.02;13.20;;;9.30;99.90;;;;;;4999885;28;20034;-83
2022/03/30 06:52:08;;;;;;;26.20;13.40;;;9.30;99.90;;;;;;4999776;28;20564;-84
2022/03/30 06:54:35;;;;;;;30.60;13.68;;;9.30;99.90;;;;;;5018136;28;20033;-84
2022/03/30 06:57:02;;;;;;;28.90;13.63;;;9.30;99.90;;;;;;5016958;28;20108;-88
2022/03/30 06:59:27;;;;;;;31.30;14.95;;;9.30;99.90;;;;;;4998059;28;20049;-87
2022/03/30 07:01:55;;;;;;;29.10;13.52;;;9.30;99.90;;;;;;5015574;28;20022;-87
2022/03/30 07:04:21;;;;;;;27.42;13.35;;;9.20;99.90;;;;;;4998378;28;20033;-86
2022/03/30 07:12:16;;;;;;;24.60;12.93;;;9.10;99.90;;;;;;5015996;28;20091;-86
2022/03/30 07:15:06;;;;;;;31.15;13.90;;;9.10;99.90;;;;;;4998508;28;20169;-87
2022/03/30 07:17:33;;;;;;;24.90;13.70;;;9.00;99.90;;;;;;4998173;28;20485;-87
2022/03/30 07:19:59;;;;;;;34.97;14.68;;;9.00;99.90;;;;;;4998096;28;20022;-85
2022/03/30 07:22:34;;;;;;;27.15;14.98;;;9.00;99.90;;;;;;5015848;28;20052;-84
2022/03/30 07:24:59;;;;;;;32.95;14.75;;;9.00;99.90;;;;;;5015962;28;20026;-83
2022/03/30 07:27:25;;;;;;;30.48;14.20;;;9.00;99.90;;;;;;4997577;28;20124;-85
2022/03/30 07:29:50;;;;;;;25.17;14.32;;;9.00;99.90;;;;;;5015484;28;20486;-85
2022/03/30 07:32:16;;;;;;;27.67;14.38;;;8.90;99.90;;;;;;5015488;28;20088;-86
2022/03/30 07:34:42;;;;;;;27.75;14.90;;;8.80;99.90;;;;;;4997436;28;20027;-86
2022/03/30 07:37:07;;;;;;;30.52;16.85;;;8.70;99.90;;;;;;5015057;28;20095;-85
2022/03/30 07:39:33;;;;;;;32.92;17.10;;;8.70;99.90;;;;;;4997337;28;20054;-87
2022/03/30 07:41:58;;;;;;;37.60;17.90;;;8.60;99.90;;;;;;4997424;28;20030;-86
2022/03/30 07:44:24;;;;;;;37.17;19.10;;;8.60;99.90;;;;;;5014470;28;20041;-85
2022/03/30 07:46:50;;;;;;;35.65;19.75;;;8.60;99.90;;;;;;5014941;28;20045;-85
2022/03/30 07:49:16;;;;;;;36.88;19.15;;;8.50;99.90;;;;;;5012199;23;20994;-91
2022/03/30 07:51:42;;;;;;;39.22;19.73;;;8.40;99.90;;;;;;5036924;28;20037;-89
2022/03/30 07:54:08;;;;;;;36.78;19.67;;;8.40;99.90;;;;;;5020284;28;20029;-91
2022/03/30 07:56:34;;;;;;;43.65;21.38;;;8.30;99.90;;;;;;5012290;28;20049;-89
2022/03/30 07:59:00;;;;;;;41.50;20.95;;;8.20;99.90;;;;;;5014720;28;20028;-89
2022/03/30 08:01:26;;;;;;;44.33;20.63;;;8.20;99.90;;;;;;5014174;28;20026;-87
2022/03/30 08:03:52;;;;;;;42.33;20.80;;;8.20;99.90;;;;;;4997016;28;20057;-87
2022/03/30 08:06:17;;;;;;;42.33;21.73;;;8.20;99.90;;;;;;5014512;28;20022;-88
2022/03/30 08:08:43;;;;;;;41.17;21.08;;;8.20;99.90;;;;;;5014597;28;20037;-88
2022/03/30 08:11:09;;;;;;;40.42;22.50;;;8.20;99.90;;;;;;4994773;28;20491;-87
2022/03/30 08:13:35;;;;;;;45.85;21.13;;;8.10;99.90;;;;;;4994668;28;20029;-89
2022/03/30 08:16:02;;;;;;;40.67;20.92;;;8.10;99.90;;;;;;4994865;28;20042;-89
2022/03/30 08:18:28;;;;;;;43.63;21.63;;;8.00;99.90;;;;;;5008507;28;20045;-88
2022/03/30 08:23:38;;;;;;;45.33;23.02;;;8.00;99.90;;;;;;5011070;28;20036;-89
2022/03/30 08:26:04;;;;;;;46.03;21.77;;;7.90;99.90;;;;;;4976808;28;20022;-89
2022/03/30 08:28:30;;;;;;;46.35;23.02;;;7.90;99.90;;;;;;4994610;28;20030;-88
2022/03/30 08:30:57;;;;;;;42.95;21.50;;;7.90;99.90;;;;;;4994191;28;20158;-87
2022/03/30 08:33:26;;;;;;;47.47;24.23;;;7.90;99.90;;;;;;5011303;28;20379;-87
2022/03/30 08:35:53;;;;;;;45.30;22.75;;;8.00;99.90;;;;;;5013723;28;20104;-89
2022/03/30 08:38:18;;;;;;;42.97;22.45;;;7.90;99.90;;;;;;5013856;28;20080;-87
2022/03/30 08:40:45;;;;;;;50.20;22.52;;;7.90;99.90;;;;;;5013776;28;20026;-88
2022/03/30 08:43:10;;;;;;;49.90;23.77;;;7.90;99.90;;;;;;5013734;28;20493;-89
2022/03/30 08:45:36;;;;;;;47.25;23.15;;;7.90;99.90;;;;;;5013698;28;20030;-89
2022/03/30 08:48:02;;;;;;;50.28;24.63;;;7.90;99.90;;;;;;4996137;28;20022;-89
2022/03/30 08:50:29;;;;;;;49.17;24.38;;;7.90;99.90;;;;;;5013965;28;20036;-88
2022/03/30 08:52:59;;;;;;;44.63;24.17;;;7.90;99.90;;;;;;5013983;28;20075;-88
2022/03/30 08:55:24;;;;;;;50.10;24.35;;;8.00;99.90;;;;;;4994918;28;20056;-88
2022/03/30 08:57:50;;;;;;;46.83;22.70;;;8.00;99.90;;;;;;4995851;28;20058;-88
2022/03/30 09:00:18;;;;;;;46.17;24.70;;;8.10;99.90;;;;;;4995787;28;20026;-90
2022/03/30 09:02:48;;;;;;;46.08;23.20;;;8.20;99.90;;;;;;5013103;28;20045;-89
2022/03/30 09:05:21;;;;;;;45.97;24.27;;;8.30;99.90;;;;;;4995900;28;20121;-89
2022/03/30 09:07:54;;;;;;;52.92;24.70;;;8.40;99.90;;;;;;5013730;28;20264;-90
2022/03/30 09:10:28;;;;;;;45.25;23.15;;;8.50;99.90;;;;;;4982896;28;20611;-88
2022/03/30 09:12:56;;;;;;;44.13;22.00;;;8.50;99.90;;;;;;4993692;28;20038;-89
2022/03/30 09:15:23;;;;;;;46.08;23.35;;;8.50;99.90;;;;;;4993825;28;20030;-90
2022/03/30 09:17:49;;;;;;;39.28;22.10;;;8.60;99.90;;;;;;5002338;28;20060;-90
2022/03/30 09:20:16;;;;;;;45.67;22.90;;;8.70;99.90;;;;;;4995376;28;20053;-90
2022/03/30 09:22:49;;;;;;;45.10;23.33;;;8.70;99.90;;;;;;5013337;28;20379;-89
2022/03/30 09:25:16;;;;;;;40.30;22.42;;;8.80;99.90;;;;;;5013289;28;20108;-90
2022/03/30 09:27:44;;;;;;;41.88;21.75;;;8.80;99.90;;;;;;5012722;28;20127;-90
2022/03/30 09:30:15;;;;;;;41.40;21.90;;;8.80;99.90;;;;;;4995473;28;20030;-89
2022/03/30 09:32:43;;;;;;;41.03;20.90;;;8.70;99.90;;;;;;5012875;28;20032;-90
2022/03/30 09:35:24;;;;;;;35.58;18.60;;;8.70;99.90;;;;;;5012769;28;20030;-89
2022/03/30 09:38:03;;;;;;;33.53;17.40;;;8.70;99.90;;;;;;5013436;28;20033;-90
2022/03/30 09:40:38;;;;;;;37.55;19.23;;;8.60;99.90;;;;;;5014926;28;20385;-90
2022/03/30 09:43:16;;;;;;;33.75;18.50;;;8.60;99.90;;;;;;5016551;28;20033;-90
2022/03/30 09:45:42;;;;;;;35.25;17.80;;;8.60;99.90;;;;;;4992290;28;20046;-90
2022/03/30 09:48:11;;;;;;;40.65;19.23;;;8.60;99.90;;;;;;5008942;28;20072;-89
2022/03/30 09:50:42;;;;;;;33.17;18.83;;;8.60;99.90;;;;;;5013542;28;20057;-91
2022/03/30 09:53:17;;;;;;;35.80;18.45;;;8.60;99.90;;;;;;5000389;28;20037;-89
2022/03/30 09:55:58;;;;;;;29.10;16.48;;;8.60;99.90;;;;;;5013056;28;20026;-90
2022/03/30 09:58:26;;;;;;;30.95;16.48;;;8.60;99.90;;;;;;5006580;28;20022;-90
2022/03/30 10:01:09;;;;;;;34.88;17.27;;;8.60;99.90;;;;;;5001144;28;20109;-89
2022/03/30 10:03:48;;;;;;;30.77;17.42;;;8.50;99.90;;;;;;4994480;28;20056;-90
2022/03/30 10:06:26;;;;;;;30.08;16.65;;;8.60;99.90;;;;;;4994360;28;20033;-89
2022/03/30 10:08:53;;;;;;;26.30;15.70;;;8.60;99.90;;;;;;5010722;28;20028;-90
2022/03/30 10:11:20;;;;;;;28.02;15.93;;;8.60;99.90;;;;;;4975053;28;20058;-88
2022/03/30 10:13:48;;;;;;;28.88;15.98;;;8.70;99.90;;;;;;4993029;28;20037;-88
2022/03/30 10:16:24;;;;;;;29.35;15.75;;;8.70;99.90;;;;;;4992768;28;20089;-90
2022/03/30 10:18:51;;;;;;;27.92;15.35;;;8.80;99.90;;;;;;5010217;28;20022;-88
2022/03/30 10:21:19;;;;;;;26.02;14.75;;;8.90;99.90;;;;;;5011786;28;20034;-89
2022/03/30 10:24:09;;;;;;;24.90;15.25;;;9.00;99.90;;;;;;5011896;28;20034;-87
2022/03/30 10:27:04;;;;;;;27.83;15.75;;;9.10;99.90;;;;;;4982064;28;20033;-89
2022/03/30 10:29:31;;;;;;;25.02;14.75;;;9.10;99.90;;;;;;4993493;28;20096;-90
2022/03/30 10:32:17;;;;;;;32.67;15.52;;;9.10;99.90;;;;;;4990673;28;20486;-90
2022/03/30 10:35:18;;;;;;;25.38;14.35;;;9.10;99.90;;;;;;5002615;28;20045;-91
2022/03/30 10:37:57;;;;;;;28.58;15.82;;;9.10;99.90;;;;;;4971134;28;20494;-90
2022/03/30 10:40:26;;;;;;;27.15;15.63;;;9.10;99.90;;;;;;4974790;28;20117;-89
2022/03/30 10:42:53;;;;;;;30.35;15.18;;;9.20;99.90;;;;;;4976256;28;20018;-88
2022/03/30 10:45:28;;;;;;;24.55;13.80;;;9.20;99.90;;;;;;4992404;28;20085;-92
2022/03/30 10:48:18;;;;;;;24.58;13.80;;;9.30;99.90;;;;;;4992019;28;20385;-89
2022/03/30 10:58:16;;;;;;;27.17;14.82;;;9.10;99.90;;;;;;4951845;28;20030;-89
2022/03/30 11:00:42;;;;;;;25.63;13.88;;;9.00;99.90;;;;;;4929617;29;20669;-90
2022/03/30 11:03:16;;;;;;;26.15;15.30;;;9.00;99.90;;;;;;4989130;28;20117;-90
2022/03/30 11:11:44;;;;;;;26.95;14.88;;;9.00;99.90;;;;;;5275920;22;20054;-90
2022/03/30 11:14:31;;;;;;;;;;;9.00;99.90;;;;;;5012217;28;20493;-88
2022/03/30 11:17:01;;;;;;;31.70;16.58;;;9.10;99.90;;;;;;5011427;28;19920;-89
2022/03/30 11:19:55;;;;;;;31.77;18.10;;;9.10;99.90;;;;;;4992635;28;20022;-91
2022/03/30 11:22:36;;;;;;;29.85;16.33;;;9.10;99.90;;;;;;4994962;28;20042;-91
2022/03/30 11:25:19;;;;;;;33.38;18.05;;;9.10;99.90;;;;;;4995546;28;20027;-89
2022/03/30 11:27:57;;;;;;;34.65;18.27;;;9.00;99.90;;;;;;4978372;28;20026;-88
2022/03/30 11:30:24;;;;;;;32.50;17.67;;;8.90;99.90;;;;;;4995136;28;20037;-89
2022/03/30 11:32:50;;;;;;;32.15;17.52;;;8.90;99.90;;;;;;4995556;28;20117;-87
2022/03/30 11:35:17;;;;;;;35.67;18.98;;;8.80;99.90;;;;;;4962461;28;20109;-88
2022/03/30 11:37:46;;;;;;;32.67;17.65;;;8.80;99.90;;;;;;4975413;28;20401;-88
2022/03/30 11:40:20;;;;;;;36.67;19.52;;;8.80;99.90;;;;;;4975795;28;20030;-88
2022/03/30 11:42:50;;;;;;;38.80;19.45;;;8.90;99.90;;;;;;4958539;28;20030;-89
2022/03/30 11:45:21;;;;;;;39.03;20.23;;;8.90;99.90;;;;;;4958539;28;20027;-86
2022/03/30 11:47:58;;;;;;;33.03;18.92;;;8.90;99.90;;;;;;4958734;28;20097;-86
2022/03/30 11:50:44;;;;;;;34.92;18.73;;;9.00;99.90;;;;;;4975711;28;20113;-86
2022/03/30 11:53:13;;;;;;;35.72;18.73;;;9.10;99.90;;;;;;4958060;28;20023;-86
2022/03/30 11:55:50;;;;;;;36.00;20.27;;;9.20;99.90;;;;;;4958046;28;20038;-86
2022/03/30 11:58:49;;;;;;;34.10;19.80;;;9.30;99.90;;;;;;4965224;28;20029;-86
2022/03/30 12:01:16;;;;;;;35.08;19.48;;;9.30;99.90;;;;;;4994726;28;20042;-86
2022/03/30 12:03:42;;;;;;;37.80;20.25;;;9.40;99.90;;;;;;4977333;28;20027;-85
2022/03/30 12:06:11;;;;;;;34.72;18.88;;;9.40;99.90;;;;;;4994789;28;20035;-86
2022/03/30 12:08:46;;;;;;;38.50;20.55;;;9.60;99.90;;;;;;4977377;28;20367;-86
2022/03/30 12:11:14;;;;;;;33.78;18.52;;;9.70;99.90;;;;;;4993551;28;20054;-86
2022/03/30 12:13:40;;;;;;;37.67;20.45;;;9.70;99.90;;;;;;4994919;28;20030;-86
2022/03/30 12:16:10;;;;;;;37.13;19.70;;;9.70;99.90;;;;;;4994552;28;20494;-86
2022/03/30 12:18:42;;;;;;;41.08;20.05;;;9.70;99.90;;;;;;4962898;28;20030;-87
2022/03/30 12:21:08;;;;;;;34.38;19.83;;;9.60;99.90;;;;;;4965412;28;20111;-87
2022/03/30 12:23:34;;;;;;;38.67;19.42;;;9.50;99.90;;;;;;4970962;28;20113;-86
2022/03/30 12:26:00;;;;;;;40.33;20.63;;;9.60;99.90;;;;;;4964411;28;20090;-87
2022/03/30 12:28:33;;;;;;;35.70;19.30;;;9.60;99.90;;;;;;4966624;28;20023;-86
2022/03/30 12:31:01;;;;;;;40.25;20.85;;;9.60;99.90;;;;;;4968804;28;20055;-87
2022/03/30 12:33:30;;;;;;;40.28;21.42;;;9.60;99.90;;;;;;4975975;28;20502;-85
2022/03/30 12:35:56;;;;;;;40.13;19.73;;;9.60;99.90;;;;;;4994383;28;20118;-86
2022/03/30 12:38:24;;;;;;;37.15;20.55;;;9.50;99.90;;;;;;4977738;28;20115;-87
2022/03/30 12:40:54;;;;;;;37.47;19.70;;;9.60;99.90;;;;;;4994895;28;20022;-86
2022/03/30 12:43:24;;;;;;;39.70;20.90;;;9.60;99.90;;;;;;4990136;28;20045;-86
2022/03/30 12:45:54;;;;;;;38.83;20.17;;;9.60;99.90;;;;;;4957600;28;20049;-85
2022/03/30 12:48:31;;;;;;;32.88;19.08;;;9.70;99.90;;;;;;4975133;28;20026;-87
2022/03/30 12:50:59;;;;;;;35.03;19.73;;;9.70;99.90;;;;;;4957358;28;20030;-86
2022/03/30 12:53:46;;;;;;;40.58;21.23;;;9.80;99.90;;;;;;4991925;28;20386;-87
2022/03/30 12:56:20;;;;;;;39.60;20.83;;;9.90;99.90;;;;;;4976774;28;20062;-87
2022/03/30 12:59:01;;;;;;;36.53;20.77;;;10.10;99.90;;;;;;4994780;28;20101;-87
2022/03/30 13:01:49;;;;;;;31.77;19.00;;;10.20;99.90;;;;;;4994115;28;20068;-86
2022/03/30 13:04:23;;;;;;;40.88;21.00;;;10.40;99.90;;;;;;4976446;28;20030;-87
2022/03/30 13:07:09;;;;;;;33.33;19.13;;;10.80;99.90;;;;;;4976761;28;20046;-87
2022/03/30 13:09:36;;;;;;;37.72;20.83;;;10.90;99.90;;;;;;4993708;28;20051;-86
2022/03/30 13:12:02;;;;;;;35.65;19.20;;;11.00;99.90;;;;;;4979105;28;20042;-86
2022/03/30 13:14:31;;;;;;;37.15;19.85;;;11.20;99.90;;;;;;4956361;28;20511;-86